sensor_id;sensor_type;location;lat;lon;timestamp;P1;durP1;ratioP1;P2;durP2;ratioP2
59476;SDS011;45713;49.766;6.592;2022-08-19T00:02:21;12.77;;;11.38;;
59476;SDS011;45713;49.766;6.592;2022-08-19T00:04:47;14.50;;;11.77;;
59476;SDS011;45713;49.766;6.592;2022-08-19T00:07:17;14.82;;;11.52;;
59476;SDS011;45713;49.766;6.592;2022-08-19T00:09:43;13.55;;;11.10;;
59476;SDS011;45713;49.766;6.592;2022-08-19T00:12:09;13.70;;;11.25;;
59476;SDS011;45713;49.766;6.592;2022-08-19T00:14:35;13.45;;;11.10;;
59476;SDS011;45713;49.766;6.592;2022-08-19T00:17:03;12.30;;;10.65;;
59476;SDS011;45713;49.766;6.592;2022-08-19T00:19:30;13.27;;;11.00;;
59476;SDS011;45713;49.766;6.592;2022-08-19T00:21:56;13.00;;;11.07;;
59476;SDS011;45713;49.766;6.592;2022-08-19T00:24:22;12.85;;;11.35;;
59476;SDS011;45713;49.766;6.592;2022-08-19T00:26:48;13.18;;;10.93;;
59476;SDS011;45713;49.766;6.592;2022-08-19T00:29:16;12.35;;;10.93;;
59476;SDS011;45713;49.766;6.592;2022-08-19T00:31:42;13.23;;;10.70;;
59476;SDS011;45713;49.766;6.592;2022-08-19T00:34:09;14.00;;;11.43;;
59476;SDS011;45713;49.766;6.592;2022-08-19T00:36:36;13.65;;;11.13;;
59476;SDS011;45713;49.766;6.592;2022-08-19T00:39:02;12.70;;;11.10;;
59476;SDS011;45713;49.766;6.592;2022-08-19T00:41:28;14.10;;;10.80;;
59476;SDS011;45713;49.766;6.592;2022-08-19T00:44:11;14.50;;;11.82;;
59476;SDS011;45713;49.766;6.592;2022-08-19T00:46:40;14.73;;;11.80;;
59476;SDS011;45713;49.766;6.592;2022-08-19T00:49:07;12.90;;;10.95;;
59476;SDS011;45713;49.766;6.592;2022-08-19T00:51:34;13.18;;;10.75;;
59476;SDS011;45713;49.766;6.592;2022-08-19T00:54:00;12.20;;;10.90;;
59476;SDS011;45713;49.766;6.592;2022-08-19T00:56:27;13.52;;;11.57;;
59476;SDS011;45713;49.766;6.592;2022-08-19T00:58:54;13.82;;;12.05;;
59476;SDS011;45713;49.766;6.592;2022-08-19T01:01:20;15.52;;;12.02;;
59476;SDS011;45713;49.766;6.592;2022-08-19T01:03:46;13.73;;;11.38;;
59476;SDS011;45713;49.766;6.592;2022-08-19T01:06:12;14.57;;;11.65;;
59476;SDS011;45713;49.766;6.592;2022-08-19T01:08:39;13.68;;;11.30;;
59476;SDS011;45713;49.766;6.592;2022-08-19T01:11:05;13.02;;;11.02;;
59476;SDS011;45713;49.766;6.592;2022-08-19T01:13:33;12.98;;;11.57;;
59476;SDS011;45713;49.766;6.592;2022-08-19T01:16:04;15.00;;;10.95;;
59476;SDS011;45713;49.766;6.592;2022-08-19T01:18:31;13.07;;;11.63;;
59476;SDS011;45713;49.766;6.592;2022-08-19T01:20:59;13.40;;;11.27;;
59476;SDS011;45713;49.766;6.592;2022-08-19T01:23:27;12.02;;;10.60;;
59476;SDS011;45713;49.766;6.592;2022-08-19T01:26:08;12.02;;;10.77;;
59476;SDS011;45713;49.766;6.592;2022-08-19T01:28:35;12.40;;;10.80;;
59476;SDS011;45713;49.766;6.592;2022-08-19T01:31:01;12.70;;;10.60;;
59476;SDS011;45713;49.766;6.592;2022-08-19T01:33:27;11.98;;;10.60;;
59476;SDS011;45713;49.766;6.592;2022-08-19T01:36:03;11.40;;;10.15;;
59476;SDS011;45713;49.766;6.592;2022-08-19T01:38:29;12.15;;;10.75;;
59476;SDS011;45713;49.766;6.592;2022-08-19T01:40:56;11.70;;;10.27;;
59476;SDS011;45713;49.766;6.592;2022-08-19T01:43:23;11.52;;;10.32;;
59476;SDS011;45713;49.766;6.592;2022-08-19T01:45:49;12.13;;;10.30;;
59476;SDS011;45713;49.766;6.592;2022-08-19T01:48:15;12.88;;;10.50;;
59476;SDS011;45713;49.766;6.592;2022-08-19T01:50:41;14.73;;;11.13;;
59476;SDS011;45713;49.766;6.592;2022-08-19T01:53:09;13.40;;;10.68;;
59476;SDS011;45713;49.766;6.592;2022-08-19T01:55:36;15.57;;;11.75;;
59476;SDS011;45713;49.766;6.592;2022-08-19T01:58:03;14.40;;;11.35;;
59476;SDS011;45713;49.766;6.592;2022-08-19T02:00:30;15.30;;;11.15;;
59476;SDS011;45713;49.766;6.592;2022-08-19T02:02:57;13.25;;;10.90;;
59476;SDS011;45713;49.766;6.592;2022-08-19T02:05:23;14.05;;;10.88;;
59476;SDS011;45713;49.766;6.592;2022-08-19T02:07:49;12.45;;;10.18;;
59476;SDS011;45713;49.766;6.592;2022-08-19T02:10:20;11.50;;;9.90;;
59476;SDS011;45713;49.766;6.592;2022-08-19T02:12:47;15.85;;;10.98;;
59476;SDS011;45713;49.766;6.592;2022-08-19T02:15:14;13.95;;;10.18;;
59476;SDS011;45713;49.766;6.592;2022-08-19T02:17:41;12.63;;;9.73;;
59476;SDS011;45713;49.766;6.592;2022-08-19T02:20:08;15.18;;;10.85;;
59476;SDS011;45713;49.766;6.592;2022-08-19T02:22:34;12.77;;;11.13;;
59476;SDS011;45713;49.766;6.592;2022-08-19T02:25:00;12.30;;;10.63;;
59476;SDS011;45713;49.766;6.592;2022-08-19T02:27:27;11.90;;;10.15;;
59476;SDS011;45713;49.766;6.592;2022-08-19T02:29:53;11.55;;;9.93;;
59476;SDS011;45713;49.766;6.592;2022-08-19T02:32:19;11.07;;;9.88;;
59476;SDS011;45713;49.766;6.592;2022-08-19T02:34:46;12.85;;;10.93;;
59476;SDS011;45713;49.766;6.592;2022-08-19T02:37:12;14.02;;;11.38;;
59476;SDS011;45713;49.766;6.592;2022-08-19T02:39:57;14.07;;;11.88;;
59476;SDS011;45713;49.766;6.592;2022-08-19T02:42:24;13.93;;;11.35;;
59476;SDS011;45713;49.766;6.592;2022-08-19T02:44:50;13.00;;;10.95;;
59476;SDS011;45713;49.766;6.592;2022-08-19T02:47:17;13.93;;;10.88;;
59476;SDS011;45713;49.766;6.592;2022-08-19T02:49:44;12.15;;;10.45;;
59476;SDS011;45713;49.766;6.592;2022-08-19T02:52:10;13.07;;;11.68;;
59476;SDS011;45713;49.766;6.592;2022-08-19T02:54:36;13.25;;;11.13;;
59476;SDS011;45713;49.766;6.592;2022-08-19T02:57:03;13.23;;;11.55;;
59476;SDS011;45713;49.766;6.592;2022-08-19T02:59:30;13.02;;;11.18;;
59476;SDS011;45713;49.766;6.592;2022-08-19T03:01:56;13.45;;;11.50;;
59476;SDS011;45713;49.766;6.592;2022-08-19T03:04:22;15.07;;;11.70;;
59476;SDS011;45713;49.766;6.592;2022-08-19T03:06:49;15.30;;;12.38;;
59476;SDS011;45713;49.766;6.592;2022-08-19T03:09:15;16.55;;;12.35;;
59476;SDS011;45713;49.766;6.592;2022-08-19T03:11:42;15.27;;;12.73;;
59476;SDS011;45713;49.766;6.592;2022-08-19T03:14:09;15.05;;;12.43;;
59476;SDS011;45713;49.766;6.592;2022-08-19T03:16:39;16.63;;;12.68;;
59476;SDS011;45713;49.766;6.592;2022-08-19T03:19:05;14.93;;;11.82;;
59476;SDS011;45713;49.766;6.592;2022-08-19T03:21:32;16.42;;;12.50;;
59476;SDS011;45713;49.766;6.592;2022-08-19T03:24:00;14.52;;;11.65;;
59476;SDS011;45713;49.766;6.592;2022-08-19T03:26:27;16.15;;;11.52;;
59476;SDS011;45713;49.766;6.592;2022-08-19T03:28:53;14.65;;;12.00;;
59476;SDS011;45713;49.766;6.592;2022-08-19T03:31:20;14.82;;;12.40;;
59476;SDS011;45713;49.766;6.592;2022-08-19T03:33:48;16.20;;;12.20;;
59476;SDS011;45713;49.766;6.592;2022-08-19T03:38:41;16.13;;;12.55;;
59476;SDS011;45713;49.766;6.592;2022-08-19T03:41:11;16.65;;;12.65;;
59476;SDS011;45713;49.766;6.592;2022-08-19T03:43:37;12.90;;;11.50;;
59476;SDS011;45713;49.766;6.592;2022-08-19T03:46:04;13.50;;;11.80;;
59476;SDS011;45713;49.766;6.592;2022-08-19T03:48:32;15.18;;;11.82;;
59476;SDS011;45713;49.766;6.592;2022-08-19T03:50:58;14.43;;;11.82;;
59476;SDS011;45713;49.766;6.592;2022-08-19T03:53:25;15.90;;;12.85;;
59476;SDS011;45713;49.766;6.592;2022-08-19T03:55:51;14.35;;;11.07;;
59476;SDS011;45713;49.766;6.592;2022-08-19T03:58:18;13.27;;;11.27;;
59476;SDS011;45713;49.766;6.592;2022-08-19T04:00:44;15.05;;;11.30;;
59476;SDS011;45713;49.766;6.592;2022-08-19T04:03:10;19.50;;;13.98;;
59476;SDS011;45713;49.766;6.592;2022-08-19T04:05:36;16.98;;;13.90;;
59476;SDS011;45713;49.766;6.592;2022-08-19T04:08:03;18.02;;;14.02;;
59476;SDS011;45713;49.766;6.592;2022-08-19T04:10:31;17.48;;;13.90;;
59476;SDS011;45713;49.766;6.592;2022-08-19T04:12:57;17.98;;;13.82;;
59476;SDS011;45713;49.766;6.592;2022-08-19T04:15:23;18.98;;;14.85;;
59476;SDS011;45713;49.766;6.592;2022-08-19T04:17:49;17.33;;;13.40;;
59476;SDS011;45713;49.766;6.592;2022-08-19T04:20:15;19.27;;;14.23;;
59476;SDS011;45713;49.766;6.592;2022-08-19T04:22:41;19.88;;;14.27;;
59476;SDS011;45713;49.766;6.592;2022-08-19T04:25:07;18.30;;;14.45;;
59476;SDS011;45713;49.766;6.592;2022-08-19T04:27:33;20.58;;;15.52;;
59476;SDS011;45713;49.766;6.592;2022-08-19T04:30:00;18.45;;;14.60;;
59476;SDS011;45713;49.766;6.592;2022-08-19T04:32:26;18.25;;;14.65;;
59476;SDS011;45713;49.766;6.592;2022-08-19T04:34:52;18.35;;;14.90;;
59476;SDS011;45713;49.766;6.592;2022-08-19T04:37:24;18.33;;;14.85;;
59476;SDS011;45713;49.766;6.592;2022-08-19T04:39:51;18.88;;;13.75;;
59476;SDS011;45713;49.766;6.592;2022-08-19T04:42:36;19.75;;;14.93;;
59476;SDS011;45713;49.766;6.592;2022-08-19T04:45:05;17.50;;;13.98;;
59476;SDS011;45713;49.766;6.592;2022-08-19T04:47:32;17.55;;;13.85;;
59476;SDS011;45713;49.766;6.592;2022-08-19T04:49:58;18.73;;;15.23;;
59476;SDS011;45713;49.766;6.592;2022-08-19T04:52:24;18.73;;;13.82;;
59476;SDS011;45713;49.766;6.592;2022-08-19T04:54:50;18.77;;;13.82;;
59476;SDS011;45713;49.766;6.592;2022-08-19T04:57:16;16.77;;;13.52;;
59476;SDS011;45713;49.766;6.592;2022-08-19T04:59:43;17.15;;;13.68;;
59476;SDS011;45713;49.766;6.592;2022-08-19T05:02:09;19.65;;;14.98;;
59476;SDS011;45713;49.766;6.592;2022-08-19T05:04:35;17.00;;;13.63;;
59476;SDS011;45713;49.766;6.592;2022-08-19T05:07:03;17.48;;;13.55;;
59476;SDS011;45713;49.766;6.592;2022-08-19T05:09:29;16.83;;;13.35;;
59476;SDS011;45713;49.766;6.592;2022-08-19T05:11:56;18.13;;;13.77;;
59476;SDS011;45713;49.766;6.592;2022-08-19T05:14:22;18.27;;;14.35;;
59476;SDS011;45713;49.766;6.592;2022-08-19T05:16:48;20.48;;;14.10;;
59476;SDS011;45713;49.766;6.592;2022-08-19T05:19:14;18.00;;;13.05;;
59476;SDS011;45713;49.766;6.592;2022-08-19T05:21:59;20.27;;;14.75;;
59476;SDS011;45713;49.766;6.592;2022-08-19T05:24:44;19.17;;;15.10;;
59476;SDS011;45713;49.766;6.592;2022-08-19T05:27:10;20.02;;;14.68;;
59476;SDS011;45713;49.766;6.592;2022-08-19T05:29:36;17.83;;;13.68;;
59476;SDS011;45713;49.766;6.592;2022-08-19T05:32:03;18.15;;;14.68;;
59476;SDS011;45713;49.766;6.592;2022-08-19T05:34:30;19.42;;;14.43;;
59476;SDS011;45713;49.766;6.592;2022-08-19T05:36:58;18.55;;;14.48;;
59476;SDS011;45713;49.766;6.592;2022-08-19T05:39:26;17.98;;;14.80;;
59476;SDS011;45713;49.766;6.592;2022-08-19T05:41:54;16.98;;;13.77;;
59476;SDS011;45713;49.766;6.592;2022-08-19T05:44:22;16.80;;;14.50;;
59476;SDS011;45713;49.766;6.592;2022-08-19T05:46:48;18.92;;;14.75;;
59476;SDS011;45713;49.766;6.592;2022-08-19T05:49:18;19.75;;;14.82;;
59476;SDS011;45713;49.766;6.592;2022-08-19T05:51:44;17.38;;;14.10;;
59476;SDS011;45713;49.766;6.592;2022-08-19T05:54:10;16.90;;;13.60;;
59476;SDS011;45713;49.766;6.592;2022-08-19T05:56:38;17.15;;;13.93;;
59476;SDS011;45713;49.766;6.592;2022-08-19T05:59:05;20.83;;;14.88;;
59476;SDS011;45713;49.766;6.592;2022-08-19T06:01:36;19.73;;;14.43;;
59476;SDS011;45713;49.766;6.592;2022-08-19T06:04:03;19.08;;;15.05;;
59476;SDS011;45713;49.766;6.592;2022-08-19T06:06:29;18.48;;;15.95;;
59476;SDS011;45713;49.766;6.592;2022-08-19T06:08:55;19.48;;;14.90;;
59476;SDS011;45713;49.766;6.592;2022-08-19T06:11:33;18.20;;;14.85;;
59476;SDS011;45713;49.766;6.592;2022-08-19T06:14:00;18.95;;;15.40;;
59476;SDS011;45713;49.766;6.592;2022-08-19T06:16:27;18.02;;;15.35;;
59476;SDS011;45713;49.766;6.592;2022-08-19T06:18:54;18.08;;;14.85;;
59476;SDS011;45713;49.766;6.592;2022-08-19T06:21:22;18.20;;;15.63;;
59476;SDS011;45713;49.766;6.592;2022-08-19T06:23:49;19.00;;;15.13;;
59476;SDS011;45713;49.766;6.592;2022-08-19T06:26:17;19.42;;;15.55;;
59476;SDS011;45713;49.766;6.592;2022-08-19T06:28:44;21.13;;;17.15;;
59476;SDS011;45713;49.766;6.592;2022-08-19T06:31:19;19.75;;;15.77;;
59476;SDS011;45713;49.766;6.592;2022-08-19T06:33:45;22.13;;;17.98;;
59476;SDS011;45713;49.766;6.592;2022-08-19T06:36:16;20.05;;;17.25;;
59476;SDS011;45713;49.766;6.592;2022-08-19T06:38:42;18.75;;;16.75;;
59476;SDS011;45713;49.766;6.592;2022-08-19T06:41:08;18.63;;;15.82;;
59476;SDS011;45713;49.766;6.592;2022-08-19T06:43:34;19.77;;;15.52;;
59476;SDS011;45713;49.766;6.592;2022-08-19T06:46:01;19.92;;;15.90;;
59476;SDS011;45713;49.766;6.592;2022-08-19T06:48:28;20.73;;;17.52;;
59476;SDS011;45713;49.766;6.592;2022-08-19T06:50:54;20.92;;;16.63;;
59476;SDS011;45713;49.766;6.592;2022-08-19T06:53:21;21.45;;;17.75;;
59476;SDS011;45713;49.766;6.592;2022-08-19T06:55:47;18.33;;;16.25;;
59476;SDS011;45713;49.766;6.592;2022-08-19T06:58:13;20.17;;;16.33;;
59476;SDS011;45713;49.766;6.592;2022-08-19T07:00:39;21.08;;;16.60;;
59476;SDS011;45713;49.766;6.592;2022-08-19T07:03:05;21.23;;;17.48;;
59476;SDS011;45713;49.766;6.592;2022-08-19T07:05:32;19.95;;;16.45;;
59476;SDS011;45713;49.766;6.592;2022-08-19T07:07:58;20.02;;;16.48;;
59476;SDS011;45713;49.766;6.592;2022-08-19T07:10:24;20.13;;;17.15;;
59476;SDS011;45713;49.766;6.592;2022-08-19T07:12:50;20.90;;;17.67;;
59476;SDS011;45713;49.766;6.592;2022-08-19T07:15:16;21.33;;;18.17;;
59476;SDS011;45713;49.766;6.592;2022-08-19T07:17:42;23.83;;;19.13;;
59476;SDS011;45713;49.766;6.592;2022-08-19T07:20:09;21.95;;;18.52;;
59476;SDS011;45713;49.766;6.592;2022-08-19T07:22:39;24.92;;;19.92;;
59476;SDS011;45713;49.766;6.592;2022-08-19T07:25:05;23.65;;;19.40;;
59476;SDS011;45713;49.766;6.592;2022-08-19T07:27:31;28.33;;;20.50;;
59476;SDS011;45713;49.766;6.592;2022-08-19T07:29:58;23.23;;;19.90;;
59476;SDS011;45713;49.766;6.592;2022-08-19T07:32:24;21.35;;;18.83;;
59476;SDS011;45713;49.766;6.592;2022-08-19T07:34:51;23.45;;;18.85;;
59476;SDS011;45713;49.766;6.592;2022-08-19T07:37:17;23.63;;;20.17;;
59476;SDS011;45713;49.766;6.592;2022-08-19T07:39:43;22.52;;;18.85;;
59476;SDS011;45713;49.766;6.592;2022-08-19T07:42:10;23.73;;;19.80;;
59476;SDS011;45713;49.766;6.592;2022-08-19T07:44:37;22.88;;;19.35;;
59476;SDS011;45713;49.766;6.592;2022-08-19T07:47:03;22.63;;;19.25;;
59476;SDS011;45713;49.766;6.592;2022-08-19T07:49:29;22.20;;;19.02;;
59476;SDS011;45713;49.766;6.592;2022-08-19T07:52:01;23.80;;;18.77;;
59476;SDS011;45713;49.766;6.592;2022-08-19T07:54:28;19.95;;;16.88;;
59476;SDS011;45713;49.766;6.592;2022-08-19T07:56:55;23.50;;;19.23;;
59476;SDS011;45713;49.766;6.592;2022-08-19T07:59:22;21.45;;;17.95;;
59476;SDS011;45713;49.766;6.592;2022-08-19T08:01:48;22.42;;;19.23;;
59476;SDS011;45713;49.766;6.592;2022-08-19T08:04:15;21.30;;;17.67;;
59476;SDS011;45713;49.766;6.592;2022-08-19T08:07:00;17.63;;;15.68;;
59476;SDS011;45713;49.766;6.592;2022-08-19T08:09:45;16.95;;;14.85;;
59476;SDS011;45713;49.766;6.592;2022-08-19T08:12:17;21.10;;;18.48;;
59476;SDS011;45713;49.766;6.592;2022-08-19T08:14:45;16.58;;;13.82;;
59476;SDS011;45713;49.766;6.592;2022-08-19T08:17:12;14.63;;;12.35;;
59476;SDS011;45713;49.766;6.592;2022-08-19T08:19:39;19.48;;;16.63;;
59476;SDS011;45713;49.766;6.592;2022-08-19T08:22:08;19.77;;;17.52;;
59476;SDS011;45713;49.766;6.592;2022-08-19T08:24:54;19.30;;;17.17;;
59476;SDS011;45713;49.766;6.592;2022-08-19T08:27:23;19.58;;;16.45;;
59476;SDS011;45713;49.766;6.592;2022-08-19T08:29:49;18.17;;;16.13;;
59476;SDS011;45713;49.766;6.592;2022-08-19T08:32:15;16.70;;;14.98;;
59476;SDS011;45713;49.766;6.592;2022-08-19T08:34:41;16.77;;;14.98;;
59476;SDS011;45713;49.766;6.592;2022-08-19T08:37:07;18.45;;;14.45;;
59476;SDS011;45713;49.766;6.592;2022-08-19T08:39:33;16.27;;;14.32;;
59476;SDS011;45713;49.766;6.592;2022-08-19T08:44:57;15.25;;;13.65;;
59476;SDS011;45713;49.766;6.592;2022-08-19T08:47:23;17.00;;;15.05;;
59476;SDS011;45713;49.766;6.592;2022-08-19T08:54:46;14.35;;;12.50;;
59476;SDS011;45713;49.766;6.592;2022-08-19T08:57:14;14.90;;;13.40;;
59476;SDS011;45713;49.766;6.592;2022-08-19T08:59:41;14.48;;;12.98;;
59476;SDS011;45713;49.766;6.592;2022-08-19T09:02:08;16.40;;;13.90;;
59476;SDS011;45713;49.766;6.592;2022-08-19T09:04:35;15.77;;;12.48;;
59476;SDS011;45713;49.766;6.592;2022-08-19T09:09:30;14.82;;;12.68;;
59476;SDS011;45713;49.766;6.592;2022-08-19T09:17:13;15.38;;;12.93;;
59476;SDS011;45713;49.766;6.592;2022-08-19T09:22:14;15.80;;;13.23;;
59476;SDS011;45713;49.766;6.592;2022-08-19T09:24:40;14.13;;;12.73;;
59476;SDS011;45713;49.766;6.592;2022-08-19T09:27:06;14.23;;;12.73;;
59476;SDS011;45713;49.766;6.592;2022-08-19T09:29:33;13.40;;;11.30;;
59476;SDS011;45713;49.766;6.592;2022-08-19T09:31:59;14.38;;;12.10;;
59476;SDS011;45713;49.766;6.592;2022-08-19T09:34:25;13.82;;;11.52;;
59476;SDS011;45713;49.766;6.592;2022-08-19T09:36:51;13.07;;;11.73;;
59476;SDS011;45713;49.766;6.592;2022-08-19T09:39:18;12.40;;;11.10;;
59476;SDS011;45713;49.766;6.592;2022-08-19T09:41:44;13.77;;;12.25;;
59476;SDS011;45713;49.766;6.592;2022-08-19T09:44:10;14.27;;;12.88;;
59476;SDS011;45713;49.766;6.592;2022-08-19T09:46:37;13.10;;;11.80;;
59476;SDS011;45713;49.766;6.592;2022-08-19T09:49:03;15.15;;;13.55;;
59476;SDS011;45713;49.766;6.592;2022-08-19T09:51:32;14.57;;;13.00;;
59476;SDS011;45713;49.766;6.592;2022-08-19T09:53:59;14.25;;;12.82;;
59476;SDS011;45713;49.766;6.592;2022-08-19T09:56:26;15.70;;;12.35;;
59476;SDS011;45713;49.766;6.592;2022-08-19T09:58:52;13.43;;;11.68;;
59476;SDS011;45713;49.766;6.592;2022-08-19T10:01:22;12.02;;;10.82;;
59476;SDS011;45713;49.766;6.592;2022-08-19T10:03:49;13.25;;;11.52;;
59476;SDS011;45713;49.766;6.592;2022-08-19T10:06:17;14.23;;;12.80;;
59476;SDS011;45713;49.766;6.592;2022-08-19T10:08:43;14.95;;;13.35;;
59476;SDS011;45713;49.766;6.592;2022-08-19T10:11:10;12.23;;;10.93;;
59476;SDS011;45713;49.766;6.592;2022-08-19T10:13:36;12.23;;;11.02;;
59476;SDS011;45713;49.766;6.592;2022-08-19T10:16:06;12.30;;;10.38;;
59476;SDS011;45713;49.766;6.592;2022-08-19T10:18:33;11.18;;;10.07;;
59476;SDS011;45713;49.766;6.592;2022-08-19T10:21:05;18.58;;;10.45;;
59476;SDS011;45713;49.766;6.592;2022-08-19T10:23:35;12.15;;;10.77;;
59476;SDS011;45713;49.766;6.592;2022-08-19T10:26:01;11.57;;;9.73;;
59476;SDS011;45713;49.766;6.592;2022-08-19T10:28:28;11.85;;;10.73;;
59476;SDS011;45713;49.766;6.592;2022-08-19T10:30:54;11.45;;;9.90;;
59476;SDS011;45713;49.766;6.592;2022-08-19T10:33:20;9.82;;;8.93;;
59476;SDS011;45713;49.766;6.592;2022-08-19T10:35:46;9.15;;;8.15;;
59476;SDS011;45713;49.766;6.592;2022-08-19T10:38:13;9.40;;;8.48;;
59476;SDS011;45713;49.766;6.592;2022-08-19T10:40:39;8.98;;;8.07;;
59476;SDS011;45713;49.766;6.592;2022-08-19T10:43:05;8.55;;;7.47;;
59476;SDS011;45713;49.766;6.592;2022-08-19T10:45:31;10.98;;;9.02;;
59476;SDS011;45713;49.766;6.592;2022-08-19T10:47:57;9.70;;;8.77;;
59476;SDS011;45713;49.766;6.592;2022-08-19T10:50:23;10.98;;;9.98;;
59476;SDS011;45713;49.766;6.592;2022-08-19T10:53:08;9.60;;;8.70;;
59476;SDS011;45713;49.766;6.592;2022-08-19T10:55:34;10.27;;;9.25;;
59476;SDS011;45713;49.766;6.592;2022-08-19T10:58:20;8.93;;;8.02;;
59476;SDS011;45713;49.766;6.592;2022-08-19T11:00:51;8.75;;;7.95;;
59476;SDS011;45713;49.766;6.592;2022-08-19T11:03:18;8.40;;;7.57;;
59476;SDS011;45713;49.766;6.592;2022-08-19T11:05:44;8.52;;;7.43;;
59476;SDS011;45713;49.766;6.592;2022-08-19T11:08:10;9.50;;;8.50;;
59476;SDS011;45713;49.766;6.592;2022-08-19T11:10:37;9.57;;;8.65;;
59476;SDS011;45713;49.766;6.592;2022-08-19T11:13:03;11.70;;;9.35;;
59476;SDS011;45713;49.766;6.592;2022-08-19T11:15:29;10.60;;;9.50;;
59476;SDS011;45713;49.766;6.592;2022-08-19T11:17:57;10.48;;;9.38;;
59476;SDS011;45713;49.766;6.592;2022-08-19T11:20:23;10.88;;;8.68;;
59476;SDS011;45713;49.766;6.592;2022-08-19T11:22:50;10.05;;;9.05;;
59476;SDS011;45713;49.766;6.592;2022-08-19T11:25:16;12.75;;;11.02;;
59476;SDS011;45713;49.766;6.592;2022-08-19T11:27:42;11.50;;;9.38;;
59476;SDS011;45713;49.766;6.592;2022-08-19T11:30:10;11.60;;;10.38;;
59476;SDS011;45713;49.766;6.592;2022-08-19T11:32:37;12.68;;;10.95;;
59476;SDS011;45713;49.766;6.592;2022-08-19T11:35:03;10.30;;;9.20;;
59476;SDS011;45713;49.766;6.592;2022-08-19T11:37:29;10.68;;;9.57;;
59476;SDS011;45713;49.766;6.592;2022-08-19T11:39:55;13.25;;;8.98;;
59476;SDS011;45713;49.766;6.592;2022-08-19T11:42:21;12.10;;;9.98;;
59476;SDS011;45713;49.766;6.592;2022-08-19T11:45:05;10.00;;;8.98;;
59476;SDS011;45713;49.766;6.592;2022-08-19T11:47:32;12.30;;;11.00;;
59476;SDS011;45713;49.766;6.592;2022-08-19T11:49:58;12.52;;;11.23;;
59476;SDS011;45713;49.766;6.592;2022-08-19T11:52:24;12.00;;;10.80;;
59476;SDS011;45713;49.766;6.592;2022-08-19T11:54:50;12.95;;;10.75;;
59476;SDS011;45713;49.766;6.592;2022-08-19T11:57:16;11.20;;;9.43;;
59476;SDS011;45713;49.766;6.592;2022-08-19T11:59:47;10.10;;;9.10;;
59476;SDS011;45713;49.766;6.592;2022-08-19T12:02:13;11.13;;;9.95;;
59476;SDS011;45713;49.766;6.592;2022-08-19T12:04:40;9.75;;;8.77;;
59476;SDS011;45713;49.766;6.592;2022-08-19T12:07:06;9.60;;;8.38;;
59476;SDS011;45713;49.766;6.592;2022-08-19T12:09:32;10.27;;;7.78;;
59476;SDS011;45713;49.766;6.592;2022-08-19T12:11:59;9.18;;;8.10;;
59476;SDS011;45713;49.766;6.592;2022-08-19T12:14:27;9.10;;;7.60;;
59476;SDS011;45713;49.766;6.592;2022-08-19T12:16:57;9.13;;;6.80;;
59476;SDS011;45713;49.766;6.592;2022-08-19T12:19:23;7.47;;;6.65;;
59476;SDS011;45713;49.766;6.592;2022-08-19T12:21:50;7.40;;;6.70;;
59476;SDS011;45713;49.766;6.592;2022-08-19T12:24:16;9.02;;;6.60;;
59476;SDS011;45713;49.766;6.592;2022-08-19T12:26:48;7.45;;;6.75;;
59476;SDS011;45713;49.766;6.592;2022-08-19T12:29:14;8.75;;;7.65;;
59476;SDS011;45713;49.766;6.592;2022-08-19T12:31:40;10.30;;;9.23;;
59476;SDS011;45713;49.766;6.592;2022-08-19T12:34:06;9.82;;;8.82;;
59476;SDS011;45713;49.766;6.592;2022-08-19T12:36:33;9.35;;;8.43;;
59476;SDS011;45713;49.766;6.592;2022-08-19T12:38:59;8.98;;;8.07;;
59476;SDS011;45713;49.766;6.592;2022-08-19T12:41:25;9.60;;;8.52;;
59476;SDS011;45713;49.766;6.592;2022-08-19T12:43:51;9.25;;;8.35;;
59476;SDS011;45713;49.766;6.592;2022-08-19T12:46:17;9.25;;;8.35;;
59476;SDS011;45713;49.766;6.592;2022-08-19T12:48:43;9.10;;;7.03;;
59476;SDS011;45713;49.766;6.592;2022-08-19T12:51:12;8.23;;;7.43;;
59476;SDS011;45713;49.766;6.592;2022-08-19T12:53:38;8.48;;;7.43;;
59476;SDS011;45713;49.766;6.592;2022-08-19T12:56:05;7.55;;;6.78;;
59476;SDS011;45713;49.766;6.592;2022-08-19T12:58:31;6.90;;;6.15;;
59476;SDS011;45713;49.766;6.592;2022-08-19T13:00:59;7.07;;;6.38;;
59476;SDS011;45713;49.766;6.592;2022-08-19T13:03:25;7.53;;;6.28;;
59476;SDS011;45713;49.766;6.592;2022-08-19T13:08:20;7.78;;;6.97;;
59476;SDS011;45713;49.766;6.592;2022-08-19T13:10:46;7.40;;;6.50;;
59476;SDS011;45713;49.766;6.592;2022-08-19T13:13:12;7.50;;;6.68;;
59476;SDS011;45713;49.766;6.592;2022-08-19T13:15:39;7.55;;;6.70;;
59476;SDS011;45713;49.766;6.592;2022-08-19T13:18:06;8.82;;;7.28;;
59476;SDS011;45713;49.766;6.592;2022-08-19T13:20:34;9.43;;;7.07;;
59476;SDS011;45713;49.766;6.592;2022-08-19T13:23:00;7.93;;;6.88;;
59476;SDS011;45713;49.766;6.592;2022-08-19T13:25:26;12.52;;;7.63;;
59476;SDS011;45713;49.766;6.592;2022-08-19T13:27:52;8.32;;;7.53;;
59476;SDS011;45713;49.766;6.592;2022-08-19T13:30:20;8.23;;;7.38;;
59476;SDS011;45713;49.766;6.592;2022-08-19T13:33:05;8.65;;;7.80;;
59476;SDS011;45713;49.766;6.592;2022-08-19T13:35:40;7.50;;;6.70;;
59476;SDS011;45713;49.766;6.592;2022-08-19T13:38:06;8.73;;;7.83;;
59476;SDS011;45713;49.766;6.592;2022-08-19T13:40:32;9.40;;;7.57;;
59476;SDS011;45713;49.766;6.592;2022-08-19T13:42:59;9.63;;;7.43;;
59476;SDS011;45713;49.766;6.592;2022-08-19T13:45:26;10.18;;;8.30;;
59476;SDS011;45713;49.766;6.592;2022-08-19T13:47:54;9.52;;;8.05;;
59476;SDS011;45713;49.766;6.592;2022-08-19T13:50:22;9.05;;;7.63;;
59476;SDS011;45713;49.766;6.592;2022-08-19T13:52:50;7.93;;;6.95;;
59476;SDS011;45713;49.766;6.592;2022-08-19T13:55:16;7.35;;;6.55;;
59476;SDS011;45713;49.766;6.592;2022-08-19T13:57:43;7.38;;;6.40;;
59476;SDS011;45713;49.766;6.592;2022-08-19T14:00:10;6.93;;;5.78;;
59476;SDS011;45713;49.766;6.592;2022-08-19T14:02:37;6.05;;;4.85;;
59476;SDS011;45713;49.766;6.592;2022-08-19T14:05:07;6.30;;;4.85;;
59476;SDS011;45713;49.766;6.592;2022-08-19T14:07:34;6.03;;;4.82;;
59476;SDS011;45713;49.766;6.592;2022-08-19T14:10:01;5.55;;;4.70;;
59476;SDS011;45713;49.766;6.592;2022-08-19T14:12:27;6.50;;;4.97;;
59476;SDS011;45713;49.766;6.592;2022-08-19T14:14:53;6.05;;;4.78;;
59476;SDS011;45713;49.766;6.592;2022-08-19T14:17:19;6.70;;;4.97;;
59476;SDS011;45713;49.766;6.592;2022-08-19T14:19:45;6.00;;;5.10;;
59476;SDS011;45713;49.766;6.592;2022-08-19T14:22:11;6.72;;;5.05;;
59476;SDS011;45713;49.766;6.592;2022-08-19T14:24:37;6.18;;;4.90;;
59476;SDS011;45713;49.766;6.592;2022-08-19T14:27:06;4.75;;;4.00;;
59476;SDS011;45713;49.766;6.592;2022-08-19T14:29:33;6.85;;;4.20;;
59476;SDS011;45713;49.766;6.592;2022-08-19T14:31:59;5.20;;;4.22;;
59476;SDS011;45713;49.766;6.592;2022-08-19T14:34:26;4.88;;;3.67;;
59476;SDS011;45713;49.766;6.592;2022-08-19T14:36:52;5.40;;;4.10;;
59476;SDS011;45713;49.766;6.592;2022-08-19T14:39:18;3.85;;;3.15;;
59476;SDS011;45713;49.766;6.592;2022-08-19T14:41:44;4.90;;;2.78;;
59476;SDS011;45713;49.766;6.592;2022-08-19T14:44:10;3.10;;;2.50;;
59476;SDS011;45713;49.766;6.592;2022-08-19T14:46:40;3.05;;;2.50;;
59476;SDS011;45713;49.766;6.592;2022-08-19T14:49:06;3.25;;;2.40;;
59476;SDS011;45713;49.766;6.592;2022-08-19T14:51:32;3.05;;;2.40;;
59476;SDS011;45713;49.766;6.592;2022-08-19T14:53:59;2.55;;;2.22;;